createdAt,value
2022-12-28T00:04:49.001Z,0.60
2022-12-28T00:09:51.431Z,0.80
2022-12-28T00:14:53.820Z,0.80
2022-12-28T00:19:59.376Z,0.80
2022-12-28T00:25:01.894Z,0.70
2022-12-28T00:30:04.771Z,0.60
2022-12-28T00:35:07.528Z,0.60
2022-12-28T00:40:10.507Z,0.60
2022-12-28T00:45:12.991Z,0.60
2022-12-28T00:50:15.401Z,0.60
2022-12-28T00:55:17.799Z,0.60
2022-12-28T01:00:20.258Z,0.70
2022-12-28T01:05:23.301Z,0.70
2022-12-28T01:10:25.787Z,0.80
2022-12-28T01:15:28.182Z,0.60
2022-12-28T01:20:30.952Z,0.60
2022-12-28T01:25:34.313Z,0.50
2022-12-28T01:30:38.984Z,0.40
2022-12-28T01:35:41.655Z,0.40
2022-12-28T01:40:44.081Z,0.40
2022-12-28T01:45:52.901Z,0.40
2022-12-28T01:50:55.488Z,0.40
2022-12-28T01:55:58.013Z,0.40
2022-12-28T02:01:00.838Z,0.30
2022-12-28T02:06:08.343Z,0.30
2022-12-28T02:11:16.496Z,0.20
2022-12-28T02:16:19.544Z,0.20
2022-12-28T02:21:36.945Z,0.20
2022-12-28T02:27:06.458Z,0.20
2022-12-28T02:32:31.682Z,0.30
2022-12-28T02:37:50.714Z,0.30
2022-12-28T02:42:54.423Z,0.30
2022-12-28T02:48:15.299Z,0.20
2022-12-28T02:53:45.660Z,0.10
2022-12-28T02:58:48.109Z,0.10
2022-12-28T03:03:57.126Z,0.10
2022-12-28T03:09:11.501Z,0.00
2022-12-28T03:14:24.832Z,0.00
2022-12-28T03:20:10.185Z,-0.10
2022-12-28T03:25:35.795Z,-0.10
2022-12-28T03:30:59.606Z,-0.20
2022-12-28T03:36:15.626Z,-0.20
2022-12-28T03:41:45.568Z,-0.20
2022-12-28T03:47:11.133Z,-0.20
2022-12-28T03:52:13.916Z,-0.10
2022-12-28T03:57:17.085Z,0.00
2022-12-28T04:02:23.063Z,0.20
2022-12-28T04:07:25.611Z,0.40
2022-12-28T04:12:28.122Z,0.50
2022-12-28T04:18:03.033Z,0.60
2022-12-28T04:23:05.491Z,0.70
2022-12-28T04:28:08.356Z,0.80
2022-12-28T04:33:38.197Z,0.90
2022-12-28T04:38:40.839Z,1.00
2022-12-28T04:43:43.251Z,1.00
2022-12-28T04:48:45.824Z,1.10
2022-12-28T04:53:48.847Z,1.20
2022-12-28T04:58:56.303Z,1.20
2022-12-28T05:03:59.870Z,1.20
2022-12-28T05:09:02.557Z,1.10
2022-12-28T05:14:04.914Z,1.10
2022-12-28T05:19:07.507Z,1.00
2022-12-28T05:24:09.904Z,1.00
2022-12-28T05:29:12.355Z,0.90
2022-12-28T05:34:14.770Z,0.80
2022-12-28T05:39:19.362Z,0.80
2022-12-28T05:44:21.739Z,0.70
2022-12-28T05:49:24.339Z,0.70
2022-12-28T05:54:26.729Z,0.70
2022-12-28T05:59:29.099Z,0.80
2022-12-28T06:04:31.463Z,0.90
2022-12-28T06:09:33.859Z,0.90
2022-12-28T06:14:36.349Z,0.90
2022-12-28T06:19:38.775Z,1.00
2022-12-28T06:24:41.176Z,1.00
2022-12-28T06:29:44.102Z,1.00
2022-12-28T06:34:46.543Z,1.00
2022-12-28T06:39:48.944Z,1.00
2022-12-28T06:44:51.378Z,1.00
2022-12-28T06:49:54.612Z,1.00
2022-12-28T06:54:57.053Z,1.20
2022-12-28T06:59:59.544Z,1.60
2022-12-28T07:05:01.961Z,1.40
2022-12-28T07:10:04.761Z,1.40
2022-12-28T07:15:07.824Z,1.50
2022-12-28T07:20:10.732Z,1.70
2022-12-28T07:25:13.097Z,1.60
2022-12-28T07:30:16.305Z,1.70
2022-12-28T07:35:18.694Z,1.70
2022-12-28T07:40:21.049Z,1.90
2022-12-28T07:45:23.392Z,1.90
2022-12-28T07:50:25.797Z,1.90
2022-12-28T07:55:31.238Z,2.00
2022-12-28T08:00:33.582Z,2.00
2022-12-28T08:05:36.016Z,2.00
2022-12-28T08:10:38.439Z,2.10
2022-12-28T08:15:40.884Z,2.10
2022-12-28T08:20:43.339Z,2.20
2022-12-28T08:25:45.783Z,2.20
2022-12-28T08:30:48.754Z,2.30
2022-12-28T08:35:51.421Z,2.40
2022-12-28T08:40:58.651Z,2.50
2022-12-28T08:46:04.405Z,2.70
2022-12-28T08:51:16.864Z,2.90
2022-12-28T08:56:21.209Z,2.80
2022-12-28T09:01:29.482Z,2.90
2022-12-28T09:06:35.870Z,2.90
2022-12-28T09:11:40.153Z,3.00
2022-12-28T09:16:42.584Z,3.00
2022-12-28T09:21:46.344Z,3.20
2022-12-28T09:26:50.927Z,3.20
2022-12-28T09:31:53.359Z,3.30
2022-12-28T09:36:55.765Z,3.40
2022-12-28T09:42:10.915Z,3.50
2022-12-28T09:47:30.059Z,3.60
2022-12-28T09:52:49.431Z,3.80
2022-12-28T09:57:55.748Z,4.20
2022-12-28T10:03:02.418Z,4.60
2022-12-28T10:08:05.217Z,4.60
2022-12-28T10:13:53.605Z,4.70
2022-12-28T10:18:51.796Z,4.70
2022-12-28T10:29:21.348Z,4.90
2022-12-28T10:34:24.593Z,4.90
2022-12-28T10:39:32.711Z,5.00
2022-12-28T10:44:40.076Z,5.10
2022-12-28T10:50:10.376Z,5.20
2022-12-28T10:55:31.384Z,5.30
2022-12-28T11:00:36.418Z,5.40
2022-12-28T11:05:38.952Z,5.40
2022-12-28T11:10:41.349Z,5.40
2022-12-28T11:15:44.269Z,5.30
2022-12-28T11:20:49.611Z,5.40
2022-12-28T11:25:52.850Z,5.30
2022-12-28T11:30:57.178Z,5.30
2022-12-28T11:36:05.572Z,5.50
2022-12-28T11:41:36.673Z,5.70
2022-12-28T11:46:40.394Z,5.90
2022-12-28T11:51:42.886Z,5.90
2022-12-28T11:56:45.306Z,5.90
2022-12-28T12:01:49.710Z,5.90
2022-12-28T12:06:52.136Z,5.90
2022-12-28T12:11:59.681Z,5.90
2022-12-28T12:17:26.058Z,5.90
2022-12-28T12:23:07.489Z,5.90
2022-12-28T12:28:35.689Z,6.10
2022-12-28T12:33:44.742Z,6.00
2022-12-28T12:39:27.686Z,6.10
2022-12-28T12:44:36.264Z,6.10
2022-12-28T12:49:57.478Z,6.00
2022-12-28T12:55:28.063Z,6.00
2022-12-28T13:01:06.963Z,6.00
2022-12-28T13:06:20.159Z,6.00
2022-12-28T13:11:23.299Z,6.00
2022-12-28T13:16:31.275Z,5.60
2022-12-28T13:21:45.511Z,6.00
2022-12-28T13:26:48.267Z,6.00
2022-12-28T13:31:51.705Z,6.10
2022-12-28T13:37:02.721Z,6.20
2022-12-28T13:42:12.222Z,6.20
2022-12-28T13:47:17.387Z,6.20
2022-12-28T13:52:26.655Z,6.20
2022-12-28T13:57:50.337Z,6.20
2022-12-28T14:02:56.893Z,6.50
2022-12-28T14:07:59.888Z,6.30
2022-12-28T14:13:04.728Z,6.40
2022-12-28T14:18:08.086Z,6.50
2022-12-28T14:23:23.727Z,6.40
2022-12-28T14:28:32.007Z,6.50
2022-12-28T14:33:50.737Z,6.60
2022-12-28T14:39:02.725Z,6.60
2022-12-28T14:44:17.846Z,6.60
2022-12-28T14:49:29.284Z,6.60
2022-12-28T14:54:34.363Z,6.60
2022-12-28T14:59:39.323Z,6.60
2022-12-28T15:04:41.984Z,6.70
2022-12-28T15:09:45.754Z,6.60
2022-12-28T15:14:48.926Z,6.60
2022-12-28T15:19:51.331Z,6.60
2022-12-28T15:24:53.716Z,6.60
2022-12-28T15:30:05.460Z,6.50
2022-12-28T15:35:09.112Z,6.50
2022-12-28T15:40:12.936Z,6.50
2022-12-28T15:45:16.658Z,6.40
2022-12-28T15:50:19.939Z,6.40
2022-12-28T15:55:22.374Z,6.40
2022-12-28T16:00:33.691Z,6.40
2022-12-28T16:05:36.529Z,6.40
2022-12-28T16:10:38.971Z,6.50
2022-12-28T16:15:41.362Z,6.50
2022-12-28T16:20:43.735Z,6.50
2022-12-28T16:25:52.285Z,6.50
2022-12-28T16:30:55.622Z,6.60
2022-12-28T16:35:59.990Z,6.80
2022-12-28T16:41:02.520Z,6.50
2022-12-28T16:46:09.099Z,6.50
2022-12-28T16:51:12.495Z,6.50
2022-12-28T16:56:15.008Z,6.50
2022-12-28T17:01:17.613Z,6.50
2022-12-28T17:06:20.315Z,6.50
2022-12-28T17:11:22.682Z,6.50
2022-12-28T17:16:25.074Z,6.40
2022-12-28T17:21:29.125Z,6.40
2022-12-28T17:26:31.589Z,6.60
2022-12-28T17:31:34.043Z,6.40
2022-12-28T17:36:36.486Z,6.40
2022-12-28T17:41:39.229Z,6.40
2022-12-28T17:46:41.546Z,6.40
2022-12-28T17:51:44.547Z,6.40
2022-12-28T17:56:46.943Z,6.40
2022-12-28T18:01:49.543Z,6.30
2022-12-28T18:06:51.969Z,6.20
2022-12-28T18:11:54.472Z,6.20
2022-12-28T18:16:57.066Z,6.10
2022-12-28T18:21:59.509Z,6.00
2022-12-28T18:27:02.471Z,5.90
2022-12-28T18:32:05.107Z,5.80
2022-12-28T18:37:07.911Z,5.80
2022-12-28T18:42:10.310Z,5.80
2022-12-28T18:47:13.513Z,5.90
2022-12-28T18:52:16.834Z,6.10
2022-12-28T18:57:19.243Z,5.80
2022-12-28T19:02:21.798Z,5.80
2022-12-28T19:07:24.317Z,5.80
2022-12-28T19:12:26.803Z,5.70
2022-12-28T19:17:29.254Z,5.70
2022-12-28T19:22:32.098Z,5.80
2022-12-28T19:27:34.650Z,5.80
2022-12-28T19:32:37.037Z,5.80
2022-12-28T19:37:39.551Z,5.90
2022-12-28T19:42:42.562Z,5.90
2022-12-28T19:47:45.007Z,5.90
2022-12-28T19:52:47.493Z,6.00
2022-12-28T19:57:50.037Z,6.10
2022-12-28T20:02:52.564Z,6.20
2022-12-28T20:07:55.463Z,6.10
2022-12-28T20:12:57.816Z,6.20
2022-12-28T20:18:00.231Z,6.30
2022-12-28T20:23:02.627Z,6.40
2022-12-28T20:28:05.102Z,6.50
2022-12-28T20:33:07.514Z,6.60
2022-12-28T20:38:20.993Z,6.60
2022-12-28T20:43:23.981Z,6.60
2022-12-28T20:48:26.659Z,6.70
2022-12-28T20:53:29.038Z,6.70
2022-12-28T20:58:31.382Z,6.60
2022-12-28T21:03:33.843Z,6.60
2022-12-28T21:08:36.781Z,6.60
2022-12-28T21:13:43.971Z,6.60
2022-12-28T21:18:49.118Z,6.60
2022-12-28T21:23:54.670Z,6.60
2022-12-28T21:28:57.076Z,6.60
2022-12-28T21:33:59.550Z,6.50
2022-12-28T21:39:01.995Z,6.60
2022-12-28T21:44:09.264Z,6.60
2022-12-28T21:49:12.177Z,6.50
2022-12-28T21:54:15.658Z,6.50
2022-12-28T21:59:18.645Z,6.50
2022-12-28T22:04:41.349Z,6.50
2022-12-28T22:10:02.192Z,6.50
2022-12-28T22:15:41.233Z,6.60
2022-12-28T22:20:43.708Z,6.40
2022-12-28T22:25:46.146Z,6.40
2022-12-28T22:30:48.490Z,6.30
2022-12-28T22:35:50.888Z,6.30
2022-12-28T22:41:00.206Z,6.30
2022-12-28T22:46:11.046Z,6.30
2022-12-28T22:51:14.981Z,6.30
2022-12-28T22:56:20.837Z,6.30
2022-12-28T23:01:23.592Z,6.20
2022-12-28T23:06:26.141Z,6.40
2022-12-28T23:11:37.546Z,6.20
2022-12-28T23:16:39.944Z,6.40
2022-12-28T23:22:01.009Z,6.40
2022-12-28T23:27:21.720Z,6.20
2022-12-28T23:32:24.126Z,6.30
2022-12-28T23:37:26.709Z,6.30
2022-12-28T23:42:29.079Z,6.40
2022-12-28T23:47:31.593Z,6.40
2022-12-28T23:52:34.559Z,6.50
2022-12-28T23:57:37.640Z,6.40
